createdAt,value
2022-08-19T00:03:39.165Z,35.63
2022-08-19T00:10:06.522Z,35.77
2022-08-19T00:16:37.572Z,35.68
2022-08-19T00:23:04.551Z,35.69
2022-08-19T00:29:27.628Z,35.73
2022-08-19T00:35:56.421Z,35.76
2022-08-19T00:42:28.591Z,35.71
2022-08-19T00:49:10.006Z,35.78
2022-08-19T00:55:57.399Z,35.77
2022-08-19T01:02:28.683Z,35.83
2022-08-19T01:09:06.967Z,35.87
2022-08-19T01:15:42.971Z,35.87
2022-08-19T01:22:33.601Z,35.91
2022-08-19T01:29:20.575Z,35.88
2022-08-19T01:36:03.359Z,35.91
2022-08-19T01:42:45.706Z,35.92
2022-08-19T01:49:25.051Z,35.95
2022-08-19T01:55:59.472Z,36.01
2022-08-19T02:02:36.022Z,35.94
2022-08-19T02:09:11.480Z,36.02
2022-08-19T02:15:33.570Z,36.08
2022-08-19T02:22:01.837Z,36.01
2022-08-19T02:28:26.562Z,36.07
2022-08-19T02:35:01.820Z,36.08
2022-08-19T02:41:39.527Z,36.04
2022-08-19T02:48:22.077Z,36.04
2022-08-19T02:54:52.065Z,35.98
2022-08-19T03:01:23.264Z,36.06
2022-08-19T03:07:56.531Z,36.07
2022-08-19T03:14:24.514Z,36.04
2022-08-19T03:20:51.202Z,36.04
2022-08-19T03:27:22.597Z,36.02
2022-08-19T03:33:51.277Z,35.98
2022-08-19T03:40:21.566Z,36.04
2022-08-19T03:46:56.632Z,35.82
2022-08-19T03:53:31.649Z,35.84
2022-08-19T04:00:13.276Z,35.78
2022-08-19T04:06:47.703Z,35.87
2022-08-19T04:13:27.536Z,35.85
2022-08-19T04:19:58.379Z,35.92
2022-08-19T04:26:54.247Z,36.05
2022-08-19T04:33:29.066Z,35.99
2022-08-19T04:40:10.368Z,36.03
2022-08-19T04:46:50.842Z,36.04
2022-08-19T04:53:15.072Z,35.97
2022-08-19T04:59:50.526Z,36.03
2022-08-19T05:06:19.248Z,36.01
2022-08-19T05:12:49.631Z,35.99
2022-08-19T05:19:21.972Z,35.76
2022-08-19T05:25:48.679Z,35.93
2022-08-19T05:32:20.199Z,35.59
2022-08-19T05:38:48.132Z,35.82
2022-08-19T05:45:20.982Z,35.66
2022-08-19T05:51:55.756Z,35.57
2022-08-19T05:58:28.606Z,35.74
2022-08-19T06:04:56.487Z,35.76
2022-08-19T06:11:34.836Z,35.76
2022-08-19T06:18:10.627Z,35.76
2022-08-19T06:24:45.663Z,35.9
2022-08-19T06:31:07.842Z,35.79
2022-08-19T06:37:35.728Z,35.84
2022-08-19T06:44:20.558Z,35.81
2022-08-19T06:50:59.819Z,35.81
2022-08-19T06:57:38.189Z,35.7
2022-08-19T07:03:59.850Z,35.8
2022-08-19T07:10:27.750Z,35.83
2022-08-19T07:17:01.835Z,35.75
2022-08-19T07:23:33.987Z,35.74
2022-08-19T07:30:12.688Z,35.69
2022-08-19T07:36:56.190Z,35.67
2022-08-19T07:43:31.425Z,35.7
2022-08-19T07:50:11.690Z,35.44
2022-08-19T07:56:53.877Z,35.41
2022-08-19T08:03:28.227Z,35.45
2022-08-19T08:10:20.861Z,35.57
2022-08-19T08:16:55.020Z,35.55
2022-08-19T08:23:25.930Z,35.55
2022-08-19T08:29:54.303Z,35.59
2022-08-19T08:36:21.829Z,35.61
2022-08-19T08:43:11.794Z,35.58
2022-08-19T08:50:32.862Z,35.57
2022-08-19T08:57:23.799Z,35.57
2022-08-19T09:04:07.769Z,35.37
2022-08-19T09:11:42.242Z,35.36
2022-08-19T09:18:19.832Z,35.34
2022-08-19T09:24:56.237Z,35.41
2022-08-19T09:31:30.733Z,35.16
2022-08-19T09:38:05.924Z,35.34
2022-08-19T09:44:41.123Z,35.25
2022-08-19T09:51:13.210Z,35.37
2022-08-19T09:57:43.543Z,35.43
2022-08-19T10:04:20.339Z,35.6
2022-08-19T10:11:27.116Z,35.57
2022-08-19T10:17:56.409Z,35.42
2022-08-19T10:24:37.902Z,35.51
2022-08-19T10:31:13.853Z,35.6
2022-08-19T10:38:00.235Z,35.55
2022-08-19T10:44:39.477Z,35.38
2022-08-19T10:51:28.313Z,35.47
2022-08-19T10:58:04.572Z,35.52
2022-08-19T11:04:43.231Z,35.46
2022-08-19T11:11:21.894Z,35.39
2022-08-19T11:17:51.426Z,35.47
2022-08-19T11:24:27.320Z,35.34
2022-08-19T11:31:03.858Z,35.36
2022-08-19T11:37:45.984Z,35.41
2022-08-19T11:44:16.883Z,35.47
2022-08-19T11:50:46.170Z,35.43
2022-08-19T11:57:16.328Z,35.1
2022-08-19T12:03:51.664Z,35.23
2022-08-19T12:10:26.596Z,35.3
2022-08-19T12:16:55.921Z,35.26
2022-08-19T12:23:27.514Z,35.2
2022-08-19T12:30:00.358Z,35.03
2022-08-19T12:36:28.920Z,35.06
2022-08-19T12:42:56.342Z,35.09
2022-08-19T12:49:35.919Z,35.16
2022-08-19T12:56:01.140Z,35.02
2022-08-19T13:02:39.359Z,35.13
2022-08-19T13:09:17.079Z,35.16
2022-08-19T13:15:56.927Z,35.17
2022-08-19T13:22:34.848Z,34.88
2022-08-19T13:29:11.962Z,34.43
2022-08-19T13:35:43.375Z,34.57
2022-08-19T13:42:22.369Z,34.56
2022-08-19T13:48:49.758Z,34.64
2022-08-19T13:55:24.957Z,34.59
2022-08-19T14:02:04.422Z,34.58
2022-08-19T14:08:36.421Z,34.15
2022-08-19T14:15:07.900Z,34.37
2022-08-19T14:21:42.269Z,34.2
2022-08-19T14:28:26.741Z,34.33
2022-08-19T14:34:56.815Z,34.06
2022-08-19T14:41:23.872Z,33.84
2022-08-19T14:47:57.146Z,33.6
2022-08-19T14:54:32.101Z,34.32
2022-08-19T15:01:00.584Z,34.36
2022-08-19T15:07:35.071Z,34.07
2022-08-19T15:14:00.432Z,34.17
2022-08-19T15:20:33.898Z,33.78
2022-08-19T15:27:05.017Z,33.99
2022-08-19T15:33:39.242Z,34.11
2022-08-19T15:40:09.195Z,33.83
2022-08-19T15:46:41.084Z,34.37
2022-08-19T15:53:09.271Z,34.66
2022-08-19T15:59:40.776Z,34.87
2022-08-19T16:06:21.241Z,35.03
2022-08-19T16:12:47.282Z,35.11
2022-08-19T16:19:15.933Z,35.15
2022-08-19T16:25:50.080Z,35.3
2022-08-19T16:32:22.931Z,35.51
2022-08-19T16:38:51.654Z,35.64
2022-08-19T16:45:24.877Z,35.66
2022-08-19T16:51:50.490Z,35.84
2022-08-19T16:58:17.106Z,35.94
2022-08-19T17:04:57.892Z,36.08
2022-08-19T17:11:31.953Z,36.01
2022-08-19T17:18:02.205Z,35.91
2022-08-19T17:24:58.731Z,36.04
2022-08-19T17:31:31.606Z,36.02
2022-08-19T17:38:00.035Z,36.04
2022-08-19T17:44:29.086Z,36.07
2022-08-19T17:50:54.843Z,36.18
2022-08-19T17:57:26.122Z,36.15
2022-08-19T18:04:04.601Z,36.16
2022-08-19T18:10:36.063Z,36.21
2022-08-19T18:17:15.012Z,36.17
2022-08-19T18:23:49.230Z,35.96
2022-08-19T18:30:21.040Z,35.93
2022-08-19T18:36:56.538Z,35.8
2022-08-19T18:43:32.541Z,35.67
2022-08-19T18:50:05.768Z,35.63
2022-08-19T18:56:35.043Z,35.69
2022-08-19T19:03:15.906Z,35.53
2022-08-19T19:09:53.290Z,35.58
2022-08-19T19:16:31.220Z,35.51
2022-08-19T19:23:06.413Z,35.53
2022-08-19T19:29:32.085Z,35.54
2022-08-19T19:36:08.570Z,35.5
2022-08-19T19:42:54.350Z,35.53
2022-08-19T19:49:22.276Z,35.52
2022-08-19T19:55:59.644Z,35.51
2022-08-19T20:02:26.036Z,35.54
2022-08-19T20:08:50.583Z,35.57
2022-08-19T20:15:19.156Z,35.56
2022-08-19T20:21:44.114Z,35.42
2022-08-19T20:28:27.719Z,35.37
2022-08-19T20:34:54.461Z,35.39
2022-08-19T20:41:19.104Z,35.37
2022-08-19T20:47:55.478Z,35.32
2022-08-19T20:54:26.212Z,35.4
2022-08-19T21:01:03.366Z,35.42
2022-08-19T21:07:41.594Z,35.35
2022-08-19T21:14:14.399Z,35.28
2022-08-19T21:20:48.160Z,35.32
2022-08-19T21:27:20.283Z,35.27
2022-08-19T21:33:44.148Z,35.14
2022-08-19T21:40:08.740Z,34.96
2022-08-19T21:46:58.721Z,35.11
2022-08-19T21:53:24.261Z,35.06
2022-08-19T21:59:51.580Z,35.11
2022-08-19T22:06:18.243Z,34.9
2022-08-19T22:12:51.604Z,35.52
2022-08-19T22:19:18.604Z,35.95
2022-08-19T22:25:48.333Z,35.9
2022-08-19T22:32:27.279Z,36.08
2022-08-19T22:39:10.206Z,35.97
2022-08-19T22:45:40.179Z,36.01
2022-08-19T22:52:06.828Z,36.21
2022-08-19T22:58:44.669Z,36.02
2022-08-19T23:05:14.359Z,36.22
2022-08-19T23:11:44.374Z,36.05
2022-08-19T23:18:20.144Z,36.27
2022-08-19T23:24:55.929Z,36.35
2022-08-19T23:31:29.299Z,36.45
2022-08-19T23:38:02.291Z,36.48
2022-08-19T23:44:52.944Z,36.48
2022-08-19T23:51:26.657Z,36.57
2022-08-19T23:57:53.314Z,36.67
